Time;durP1;ratioP1;P1;durP2;ratioP2;P2;SDS_P1;SDS_P2;PMS_P1;PMS_P2;Temp;Humidity;BMP_temperature;BMP_pressure;BME280_temperature;BME280_humidity;BME280_pressure;Samples;Min_cycle;Max_cycle;Signal;HPM_P1;HPM_P2
2022/01/12 00:02:24;;;;;;;56.85;22.00;;;;;;;3.87;100.00;103598.91;5074972;28;20029;-73
2022/01/12 00:04:50;;;;;;;55.75;21.50;;;;;;;3.89;100.00;103604.22;5074401;28;20115;-72
2022/01/12 00:07:15;;;;;;;54.65;21.02;;;;;;;3.88;100.00;103597.19;5074531;28;20020;-74
2022/01/12 00:09:40;;;;;;;51.88;20.42;;;;;;;3.88;100.00;103600.69;5074767;28;20146;-70
2022/01/12 00:12:06;;;;;;;50.00;20.17;;;;;;;3.85;100.00;103597.09;5074897;28;20024;-77
2022/01/12 00:14:32;;;;;;;47.53;18.63;;;;;;;3.86;100.00;103596.25;5073080;28;20428;-71
2022/01/12 00:16:59;;;;;;;44.90;19.25;;;;;;;3.86;100.00;103591.91;5074817;28;20031;-75
2022/01/12 00:19:26;;;;;;;47.50;18.77;;;;;;;3.79;100.00;103581.22;5074603;28;20111;-71
2022/01/12 00:21:55;;;;;;;42.63;18.98;;;;;;;3.80;100.00;103578.63;5074480;28;20590;-74
2022/01/12 00:24:20;;;;;;;43.55;16.50;;;;;;;3.79;100.00;103568.09;5074450;28;20024;-75
2022/01/12 00:34:58;;;;;;;44.88;17.23;;;;;;;3.75;100.00;103572.38;5074118;28;20078;-78
2022/01/12 00:37:24;;;;;;;46.70;18.70;;;;;;;3.75;100.00;103575.88;5074022;28;20036;-70
2022/01/12 00:39:49;;;;;;;42.67;17.67;;;;;;;3.73;100.00;103574.03;5073850;28;20029;-75
2022/01/12 00:42:14;;;;;;;45.30;17.25;;;;;;;3.78;100.00;103588.16;5074281;28;20024;-73
2022/01/12 00:44:45;;;;;;;44.15;18.13;;;;;;;3.82;100.00;103594.38;5074176;28;20052;-78
2022/01/12 00:47:10;;;;;;;50.35;18.30;;;;;;;3.79;100.00;103592.56;5073512;28;20021;-70
2022/01/12 00:49:36;;;;;;;49.90;18.75;;;;;;;3.82;100.00;103602.25;5073726;28;20028;-72
2022/01/12 00:52:02;;;;;;;45.45;17.80;;;;;;;3.83;100.00;103590.94;5074059;28;20036;-70
2022/01/12 00:54:27;;;;;;;50.72;18.90;;;;;;;3.82;100.00;103591.78;5073789;28;20025;-70
2022/01/12 00:56:53;;;;;;;45.90;17.67;;;;;;;3.83;100.00;103583.06;5073822;28;20052;-75
2022/01/12 00:59:18;;;;;;;45.42;17.83;;;;;;;3.83;100.00;103589.19;5073649;28;20059;-71
2022/01/12 01:01:44;;;;;;;44.97;18.25;;;;;;;3.84;100.00;103584.84;5073367;28;20495;-75
2022/01/12 01:04:09;;;;;;;49.75;18.50;;;;;;;3.83;100.00;103589.19;5073909;28;20021;-70
2022/01/12 01:06:36;;;;;;;44.67;17.58;;;;;;;3.83;100.00;103580.44;5073707;28;20460;-77
2022/01/12 01:09:02;;;;;;;44.15;17.88;;;;;;;3.82;100.00;103576.91;5073154;28;20028;-73
2022/01/12 01:11:27;;;;;;;52.22;19.05;;;;;;;3.83;100.00;103573.44;5073139;28;20035;-75
2022/01/12 01:14:01;;;;;;;50.30;19.05;;;;;;;3.78;100.00;103564.56;5073610;28;20020;-74
2022/01/12 01:27:48;;;;;;;46.45;17.98;;;;;;;3.80;100.00;103560.28;4992273;28;20053;-72
2022/01/12 01:30:15;;;;;;;46.75;17.67;;;;;;;3.85;100.00;103568.25;4991464;28;20042;-72
2022/01/12 01:32:41;;;;;;;41.83;17.00;;;;;;;3.87;100.00;103569.19;4991015;28;20038;-72
2022/01/12 01:35:07;;;;;;;41.25;16.73;;;;;;;3.88;100.00;103571.84;4991746;28;20035;-71
2022/01/12 01:37:32;;;;;;;39.90;16.40;;;;;;;3.91;100.00;103578.91;4991587;28;20042;-73
2022/01/12 01:39:58;;;;;;;43.08;18.05;;;;;;;3.93;100.00;103592.94;4991310;28;20398;-74
2022/01/12 01:42:26;;;;;;;39.88;16.75;;;;;;;3.95;100.00;103601.72;4991341;28;20414;-75
2022/01/12 01:55:30;;;;;;;38.88;16.75;;;;;;;4.03;100.00;103662.25;5008484;28;20040;-75
2022/01/12 01:57:56;;;;;;;40.00;16.55;;;;;;;4.07;100.00;103643.16;5052797;28;20032;-77
2022/01/12 02:00:24;;;;;;;40.55;16.92;;;;;;;4.07;100.00;103670.25;5054837;28;20488;-73
2022/01/12 02:02:51;;;;;;;40.42;17.02;;;;;;;4.04;100.00;103678.03;5072139;28;20020;-70
2022/01/12 02:05:16;;;;;;;43.45;17.35;;;;;;;4.07;100.00;103682.50;5072158;28;20027;-77
2022/01/12 02:07:43;;;;;;;45.13;17.73;;;;;;;4.03;100.00;103702.50;5072858;28;20032;-70
2022/01/12 02:10:09;;;;;;;43.60;17.58;;;;;;;4.03;100.00;103697.25;5072582;28;20029;-77
2022/01/12 02:12:35;;;;;;;49.20;18.20;;;;;;;4.05;100.00;103697.28;5072128;28;20060;-72
2022/01/12 02:15:01;;;;;;;45.40;18.63;;;;;;;4.07;100.00;103690.34;5067434;28;20060;-75
2022/01/12 02:17:35;;;;;;;43.45;16.67;;;;;;;4.05;100.00;103697.28;5052573;28;20021;-71
2022/01/12 02:20:26;;;;;;;45.70;18.63;;;;;;;4.07;100.00;103693.84;5052063;28;20097;-77
2022/01/12 02:36:54;;;;;;;47.10;18.10;;;;;;;4.23;100.00;103713.56;5072591;28;20442;-72
2022/01/12 02:42:04;;;;;;;51.25;18.15;;;;;;;4.24;100.00;103710.06;5072312;28;20549;-74
2022/01/12 02:55:24;;;;;;;51.15;18.70;;;;;;;4.19;100.00;103705.53;5065042;28;20060;-75
2022/01/12 02:57:50;;;;;;;58.30;19.50;;;;;;;4.22;100.00;103709.16;5072894;28;20468;-75
2022/01/12 03:00:18;;;;;;;50.90;19.00;;;;;;;4.22;100.00;103708.22;5056469;28;20061;-73
2022/01/12 03:02:49;;;;;;;54.08;19.02;;;;;;;4.23;100.00;103695.19;5055942;28;20103;-71
2022/01/12 03:05:32;;;;;;;55.60;20.30;;;;;;;4.23;100.00;103702.16;5072131;28;20055;-71
2022/01/12 03:08:02;;;;;;;55.08;18.75;;;;;;;4.22;100.00;103697.75;5076203;28;20035;-71
2022/01/12 03:10:27;;;;;;;55.13;19.30;;;;;;;4.24;100.00;103677.69;5075855;28;20453;-75
2022/01/12 03:12:53;;;;;;;63.10;20.48;;;;;;;4.21;100.00;103682.88;5075928;28;20071;-76
2022/01/12 03:15:18;;;;;;;58.75;19.55;;;;;;;4.18;100.00;103675.81;5074961;28;20055;-76
2022/01/12 03:17:44;;;;;;;58.42;20.63;;;;;;;4.16;100.00;103682.75;5075734;28;20099;-76
2022/01/12 03:20:10;;;;;;;58.50;19.42;;;;;;;4.16;100.00;103698.47;5075138;28;20025;-71
2022/01/12 03:22:36;;;;;;;56.08;19.70;;;;;;;4.18;100.00;103709.91;5075425;28;20078;-71
2022/01/12 03:25:02;;;;;;;61.42;20.00;;;;;;;4.22;100.00;103711.78;5075321;28;20037;-75
2022/01/12 03:27:29;;;;;;;69.78;21.52;;;;;;;4.22;100.00;103719.63;5075340;28;20029;-75
2022/01/12 03:29:56;;;;;;;64.80;21.52;;;;;;;4.26;100.00;103720.63;5075358;28;20038;-76
2022/01/12 03:32:39;;;;;;;68.07;21.25;;;;;;;4.29;100.00;103717.19;5075583;28;20512;-71
2022/01/12 03:35:10;;;;;;;62.65;20.38;;;;;;;4.37;100.00;103724.44;5075276;28;20025;-75
2022/01/12 03:37:53;;;;;;;55.80;20.23;;;;;;;4.33;100.00;103725.16;5074911;28;20039;-74
2022/01/12 03:40:19;;;;;;;69.13;20.23;;;;;;;4.33;100.00;103726.91;5075638;28;20048;-75
2022/01/12 03:42:45;;;;;;;73.45;22.13;;;;;;;4.30;100.00;103726.81;5075458;28;20067;-71
2022/01/12 03:45:10;;;;;;;69.82;22.20;;;;;;;4.32;100.00;103730.38;5074935;28;20040;-70
2022/01/12 03:47:36;;;;;;;68.07;22.05;;;;;;;4.29;100.00;103733.81;5074628;28;20028;-75
2022/01/12 03:50:01;;;;;;;72.78;22.90;;;;;;;4.27;100.00;103730.22;5075171;28;20254;-70
2022/01/12 03:52:26;;;;;;;66.40;21.25;;;;;;;4.23;100.00;103738.88;5075064;28;20525;-73
2022/01/12 03:54:52;;;;;;;73.45;21.40;;;;;;;4.23;100.00;103738.88;5075061;28;20032;-75
2022/01/12 03:57:18;;;;;;;68.80;22.13;;;;;;;4.22;100.00;103735.38;5073602;28;20027;-73
2022/01/12 03:59:43;;;;;;;66.28;21.05;;;;;;;4.26;100.00;103742.47;5075140;28;20032;-73
2022/01/12 04:02:08;;;;;;;70.28;22.30;;;;;;;4.30;100.00;103743.47;5071815;28;20080;-73
2022/01/12 04:04:42;;;;;;;78.25;21.90;;;;;;;4.30;100.00;103743.47;5054958;28;20425;-70
2022/01/12 04:09:51;;;;;;;72.05;23.05;;;;;;;4.25;100.00;103727.56;5075083;28;20095;-75
2022/01/12 04:12:17;;;;;;;78.22;23.27;;;;;;;4.23;100.00;103718.78;5074807;28;20024;-73
2022/01/12 04:14:42;;;;;;;71.35;21.45;;;;;;;4.22;100.00;103726.59;5074897;28;20467;-73
2022/01/12 04:17:08;;;;;;;77.35;23.80;;;;;;;4.19;100.00;103718.66;5074740;28;20028;-71
2022/01/12 04:19:34;;;;;;;68.65;22.95;;;;;;;4.10;100.00;103719.28;5073651;28;20040;-72
2022/01/12 04:22:08;;;;;;;77.85;22.38;;;;;;;4.02;100.00;103721.69;5074386;28;20427;-74
2022/01/12 04:24:35;;;;;;;85.47;22.50;;;;;;;3.97;100.00;103725.91;5074498;28;20055;-74
2022/01/12 04:27:00;;;;;;;84.55;24.27;;;;;;;3.98;100.00;103745.13;5074653;28;20074;-73
2022/01/12 04:29:25;;;;;;;80.18;22.90;;;;;;;3.98;100.00;103742.50;5073947;28;20020;-76
2022/01/12 04:31:51;;;;;;;84.95;23.40;;;;;;;3.97;100.00;103748.63;5074409;28;20475;-72
2022/01/12 04:34:16;;;;;;;83.95;22.45;;;;;;;3.97;100.00;103751.25;5074457;28;20031;-73
2022/01/12 04:36:41;;;;;;;79.70;23.63;;;;;;;3.94;100.00;103752.03;5074413;28;20059;-72
2022/01/12 04:39:07;;;;;;;81.68;24.45;;;;;;;3.90;100.00;103756.31;5073148;28;20024;-75
2022/01/12 04:41:32;;;;;;;78.78;22.55;;;;;;;3.87;100.00;103752.69;5074110;28;20082;-73
2022/01/12 04:43:58;;;;;;;80.82;22.88;;;;;;;3.86;100.00;103738.72;5074106;28;20101;-72
2022/01/12 04:46:31;;;;;;;88.97;23.83;;;;;;;3.83;100.00;103735.97;5074480;28;20071;-72
2022/01/12 04:51:23;;;;;;;87.15;24.13;;;;;;;3.74;100.00;103735.72;5074008;28;20041;-74
2022/01/12 04:53:49;;;;;;;92.97;25.17;;;;;;;3.75;100.00;103737.50;5073680;28;20020;-72
2022/01/12 04:56:14;;;;;;;90.50;24.52;;;;;;;3.72;100.00;103733.06;5073966;28;20125;-73
2022/01/12 04:58:40;;;;;;;91.45;23.42;;;;;;;3.68;100.00;103725.91;5073957;28;20032;-71
2022/01/12 05:01:10;;;;;;;100.90;26.63;;;;;;;3.68;100.00;103728.53;5072790;28;20161;-76
2022/01/12 05:09:06;;;;;;;111.37;26.87;;;;;;;3.68;100.00;103739.00;5072634;28;20110;-75
2022/01/12 05:14:15;;;;;;;102.82;24.40;;;;;;;3.69;100.00;103753.03;5074006;28;20063;-72
2022/01/12 05:16:41;;;;;;;102.35;26.05;;;;;;;3.64;100.00;103755.50;5073516;28;20472;-71
2022/01/12 05:19:06;;;;;;;84.40;24.35;;;;;;;3.64;100.00;103759.84;5073373;28;20025;-71
2022/01/12 05:21:31;;;;;;;79.22;22.98;;;;;;;3.63;100.00;103764.19;5072911;28;20036;-72
2022/01/12 05:24:00;;;;;;;80.05;24.55;;;;;;;3.61;100.00;103768.50;5072773;28;20035;-74
2022/01/12 05:26:25;;;;;;;71.47;22.67;;;;;;;3.57;100.00;103764.91;5073273;28;20475;-72
2022/01/12 05:28:50;;;;;;;100.65;21.88;;;;;;;3.57;100.00;103759.66;5073246;28;20140;-77
2022/01/12 05:31:16;;;;;;;85.90;20.60;;;;;;;3.56;100.00;103762.25;5073028;28;20029;-71
2022/01/12 05:33:47;;;;;;;106.60;22.63;;;;;;;3.50;100.00;103757.66;5072810;28;20654;-72
2022/01/12 05:36:12;;;;;;;101.32;22.13;;;;;;;3.45;100.00;103764.50;5073143;28;20032;-74
2022/01/12 05:38:38;;;;;;;59.88;21.50;;;;;;;3.40;100.00;103776.56;5072983;28;20532;-73
2022/01/12 05:41:05;;;;;;;87.40;21.98;;;;;;;3.37;100.00;103768.63;5072435;28;20438;-71
2022/01/12 05:43:31;;;;;;;77.05;22.42;;;;;;;3.33;100.00;103772.84;5072339;28;20048;-76
2022/01/12 05:46:10;;;;;;;125.05;23.25;;;;;;;3.30;100.00;103767.53;5072748;28;20028;-76
2022/01/12 05:51:21;;;;;;;124.78;22.50;;;;;;;3.27;100.00;103773.56;5072547;28;20035;-70
2022/01/12 05:53:46;;;;;;;48.80;19.48;;;;;;;3.25;100.00;103787.44;5071932;28;20033;-71
2022/01/12 05:56:12;;;;;;;64.38;19.92;;;;;;;3.21;100.00;103790.78;5072404;28;20021;-73
2022/01/12 05:58:37;;;;;;;54.78;18.23;;;;;;;3.14;100.00;103789.69;5072752;28;20480;-73
2022/01/12 06:01:02;;;;;;;197.93;22.48;;;;;;;3.06;100.00;103780.69;5067880;28;20099;-73
2022/01/12 06:03:28;;;;;;;157.52;20.70;;;;;;;2.93;100.00;103788.13;5052219;28;20108;-75
2022/01/12 06:05:53;;;;;;;304.42;26.60;;;;;;;2.85;100.00;103791.31;5066199;28;20024;-71
2022/01/12 06:08:19;;;;;;;84.25;19.58;;;;;;;2.84;100.00;103803.50;5072483;28;20426;-71
2022/01/12 06:10:44;;;;;;;49.97;18.92;;;;;;;2.79;100.00;103811.19;5072465;28;20074;-73
2022/01/12 06:13:09;;;;;;;132.07;19.48;;;;;;;2.71;100.00;103812.66;5072153;28;20025;-72
2022/01/12 06:15:34;;;;;;;54.67;18.08;;;;;;;2.70;100.00;103830.88;5072051;28;20460;-71
2022/01/12 06:18:00;;;;;;;70.82;19.83;;;;;;;2.71;100.00;103830.06;5054553;28;20025;-71
2022/01/12 06:20:25;;;;;;;47.33;18.17;;;;;;;2.75;100.00;103831.94;5052060;28;20032;-72
2022/01/12 06:22:51;;;;;;;111.50;21.80;;;;;;;2.77;100.00;103835.53;5055065;28;20456;-75
2022/01/12 06:25:16;;;;;;;68.05;18.55;;;;;;;2.71;100.00;103848.38;5072232;28;20062;-75
2022/01/12 06:27:56;;;;;;;43.25;17.27;;;;;;;2.62;100.00;103836.75;5071772;28;20036;-72
2022/01/12 06:32:56;;;;;;;71.53;19.30;;;;;;;2.60;100.00;103843.66;5071151;28;20136;-74
2022/01/12 06:35:22;;;;;;;44.83;18.05;;;;;;;2.57;100.00;103851.41;5071093;28;20028;-75
2022/01/12 06:37:49;;;;;;;97.95;20.38;;;;;;;2.51;100.00;103848.56;5071243;28;20029;-74
2022/01/12 06:40:15;;;;;;;49.65;19.80;;;;;;;2.48;100.00;103845.81;5075008;28;20052;-71
2022/01/12 06:42:41;;;;;;;98.03;21.27;;;;;;;2.51;100.00;103848.56;5071436;28;20103;-71
2022/01/12 06:45:07;;;;;;;51.42;19.52;;;;;;;2.59;100.00;103862.78;5071200;28;20075;-75
2022/01/12 06:47:33;;;;;;;53.20;19.05;;;;;;;2.62;100.00;103855.06;5061831;28;20051;-71
2022/01/12 06:49:58;;;;;;;56.35;20.33;;;;;;;2.65;100.00;103859.53;5071602;28;20025;-71
2022/01/12 06:52:23;;;;;;;55.58;19.75;;;;;;;2.68;100.00;103853.50;5068962;28;20024;-77
2022/01/12 06:54:49;;;;;;;65.60;19.77;;;;;;;2.69;100.00;103860.53;5071960;28;20073;-71
2022/01/12 06:57:16;;;;;;;49.40;19.60;;;;;;;2.70;100.00;103862.28;5071386;28;20074;-74
2022/01/12 06:59:41;;;;;;;50.50;19.52;;;;;;;2.70;100.00;103878.00;5071985;28;20079;-77
2022/01/12 07:02:06;;;;;;;75.90;21.58;;;;;;;2.71;100.00;103882.41;5069292;28;20052;-75
2022/01/12 07:04:32;;;;;;;105.00;22.80;;;;;;;2.66;100.00;103883.97;5067350;28;20099;-78
2022/01/12 07:06:57;;;;;;;137.13;26.45;;;;;;;2.62;100.00;103883.84;5058384;28;20029;-77
2022/01/12 07:09:22;;;;;;;91.30;21.25;;;;;;;2.62;100.00;103891.72;5059452;28;20028;-71
2022/01/12 07:11:48;;;;;;;70.00;20.45;;;;;;;2.62;100.00;103899.56;5071599;28;20525;-71
2022/01/12 07:14:14;;;;;;;81.25;19.83;;;;;;;2.61;100.00;103895.16;5071330;28;20499;-71
2022/01/12 07:16:39;;;;;;;71.82;19.83;;;;;;;2.63;100.00;103892.59;5057696;28;20028;-75
2022/01/12 07:19:05;;;;;;;77.05;21.35;;;;;;;2.63;100.00;103895.19;5071069;28;20064;-72
2022/01/12 07:21:30;;;;;;;65.75;19.55;;;;;;;2.65;100.00;103892.63;5071740;28;20476;-72
2022/01/12 07:23:56;;;;;;;73.88;21.67;;;;;;;2.69;100.00;103894.56;5071837;28;20029;-72
2022/01/12 07:26:23;;;;;;;80.22;20.05;;;;;;;2.76;100.00;103892.22;5071510;28;20507;-73
2022/01/12 07:28:49;;;;;;;72.68;19.13;;;;;;;2.79;100.00;103894.06;5062380;28;20064;-74
2022/01/12 07:31:15;;;;;;;55.97;19.17;;;;;;;2.80;100.00;103898.47;5062600;28;20033;-75
2022/01/12 07:33:40;;;;;;;74.78;18.85;;;;;;;2.80;100.00;103895.84;5077484;28;20050;-73
2022/01/12 07:36:05;;;;;;;37.90;14.75;;;;;;;2.80;100.00;103893.22;5075412;28;20032;-70
2022/01/12 07:38:31;;;;;;;66.45;15.90;;;;;;;2.78;100.00;103905.34;5074653;28;20115;-77
2022/01/12 07:40:56;;;;;;;53.45;14.73;;;;;;;2.76;100.00;103910.53;5074972;28;20039;-73
2022/01/12 07:43:22;;;;;;;38.58;13.88;;;;;;;2.74;100.00;103909.59;5067650;28;20045;-77
2022/01/12 07:45:47;;;;;;;41.03;14.25;;;;;;;2.71;100.00;103916.41;5065003;28;20492;-77
2022/01/12 07:48:13;;;;;;;41.47;13.93;;;;;;;2.68;100.00;103911.09;5066720;28;20039;-77
2022/01/12 07:50:39;;;;;;;35.10;14.45;;;;;;;2.61;100.00;103918.69;5074619;28;20396;-71
2022/01/12 07:53:04;;;;;;;38.25;15.35;;;;;;;2.58;100.00;103913.34;5074364;28;20036;-77
2022/01/12 07:55:29;;;;;;;49.40;15.55;;;;;;;2.51;100.00;103923.53;5069843;28;20047;-75
2022/01/12 07:57:54;;;;;;;42.60;16.60;;;;;;;2.46;100.00;103928.56;5066009;28;20427;-76
2022/01/12 08:00:20;;;;;;;43.85;15.27;;;;;;;2.46;100.00;103926.84;5075105;28;20029;-74
2022/01/12 08:02:45;;;;;;;41.15;15.63;;;;;;;2.46;100.00;103941.66;5069064;28;20035;-79
2022/01/12 08:05:12;;;;;;;38.58;15.07;;;;;;;2.50;100.00;103946.16;5057434;28;20025;-73
2022/01/12 08:07:39;;;;;;;36.78;15.18;;;;;;;2.54;100.00;103962.88;5055430;28;20032;-78
2022/01/12 08:10:08;;;;;;;46.00;15.50;;;;;;;2.52;100.00;103969.75;5054840;28;20024;-76
2022/01/12 08:12:34;;;;;;;42.08;14.60;;;;;;;2.52;100.00;103967.16;5055083;28;20036;-70
2022/01/12 08:15:00;;;;;;;35.67;13.82;;;;;;;2.54;100.00;103969.00;5072259;28;20033;-75
2022/01/12 08:17:25;;;;;;;30.80;12.95;;;;;;;2.51;100.00;103975.84;5074499;28;20030;-78
2022/01/12 08:19:54;;;;;;;31.92;11.90;;;;;;;2.45;100.00;103966.03;5073949;28;20495;-71
2022/01/12 08:22:20;;;;;;;42.08;10.57;;;;;;;2.39;100.00;103964.06;5074521;28;20021;-78
2022/01/12 08:24:45;;;;;;;31.83;10.02;;;;;;;2.36;100.00;103974.38;5074103;28;20040;-71
2022/01/12 08:27:10;;;;;;;24.35;10.40;;;;;;;2.38;100.00;103969.22;5068609;28;20484;-77
2022/01/12 08:29:36;;;;;;;41.25;10.77;;;;;;;2.36;100.00;103971.78;5074084;28;20095;-77
2022/01/12 08:32:01;;;;;;;42.28;10.13;;;;;;;2.31;100.00;103967.22;5064562;28;20392;-76
2022/01/12 08:34:27;;;;;;;33.80;10.35;;;;;;;2.29;100.00;103969.75;5065336;28;20336;-77
2022/01/12 08:36:53;;;;;;;23.20;9.48;;;;;;;2.32;100.00;103982.06;5063008;28;20025;-78
2022/01/12 08:39:18;;;;;;;29.52;9.15;;;;;;;2.34;100.00;103994.38;5072557;28;20032;-76
2022/01/12 08:41:43;;;;;;;33.90;8.90;;;;;;;2.33;100.00;103986.44;5074040;28;20077;-76
2022/01/12 08:44:09;;;;;;;23.92;7.93;;;;;;;2.32;100.00;103990.78;5073731;28;20120;-76
2022/01/12 08:46:36;;;;;;;24.83;9.07;;;;;;;2.39;100.00;104002.38;5073845;28;20075;-76
2022/01/12 08:49:02;;;;;;;24.35;9.38;;;;;;;2.42;100.00;104011.25;5074021;28;20016;-72
2022/01/12 08:51:28;;;;;;;22.42;9.02;;;;;;;2.53;100.00;104016.94;5074189;28;20033;-78
2022/01/12 08:53:53;;;;;;;34.42;8.75;;;;;;;2.54;100.00;104010.84;5069243;28;20044;-70
2022/01/12 08:56:19;;;;;;;22.63;9.55;;;;;;;2.65;100.00;104000.81;5054130;28;20025;-76
2022/01/12 08:58:45;;;;;;;30.75;9.80;;;;;;;2.79;100.00;104017.06;5067159;28;20028;-76
2022/01/12 09:01:11;;;;;;;24.42;9.35;;;;;;;2.88;100.00;104017.41;5075621;28;20066;-78
2022/01/12 09:03:38;;;;;;;23.77;9.73;;;;;;;2.92;100.00;104019.31;5088278;28;20079;-77
2022/01/12 09:06:05;;;;;;;32.20;10.18;;;;;;;3.02;100.00;104031.03;5076774;28;20033;-71
2022/01/12 09:08:31;;;;;;;26.88;9.27;;;;;;;3.11;100.00;104031.38;5067954;28;20053;-73
2022/01/12 09:10:56;;;;;;;23.90;9.95;;;;;;;3.26;100.00;104032.78;5067994;28;20055;-75
2022/01/12 09:13:21;;;;;;;40.05;9.90;;;;;;;3.41;100.00;104024.59;5070317;28;20478;-69
2022/01/12 09:15:46;;;;;;;32.50;8.95;;;;;;;3.48;100.00;104036.19;5053767;28;20025;-77
2022/01/12 09:18:12;;;;;;;43.85;9.40;;;;;;;3.58;100.00;104043.53;5073672;28;20081;-79
2022/01/12 09:20:37;;;;;;;20.95;8.68;;;;;;;3.60;100.00;104049.75;5072723;28;20025;-74
2022/01/12 09:23:03;;;;;;;80.95;9.80;;;;;;;3.60;100.00;104045.38;5070845;28;20103;-77
2022/01/12 09:25:29;;;;;;;29.98;8.95;;;;;;;3.64;100.00;104053.38;5072340;28;20052;-77
2022/01/12 09:27:56;;;;;;;48.75;9.93;;;;;;;3.65;100.00;104050.81;5072317;28;20071;-74
2022/01/12 09:30:23;;;;;;;44.42;11.38;;;;;;;3.64;100.00;104062.13;5070520;28;20385;-74
2022/01/12 09:32:48;;;;;;;74.50;12.77;;;;;;;3.61;100.00;104056.78;5074957;28;20126;-72
2022/01/12 09:35:14;;;;;;;35.67;11.98;;;;;;;3.65;100.00;104073.50;5073598;28;20108;-73
2022/01/12 09:37:39;;;;;;;67.70;11.95;;;;;;;3.67;100.00;104071.81;5071608;28;20039;-74
2022/01/12 09:40:07;;;;;;;132.68;14.88;;;;;;;3.65;100.00;104066.53;5072012;28;20173;-73
2022/01/12 09:42:32;;;;;;;103.82;15.48;;;;;;;3.77;100.00;104071.31;5072629;28;20100;-74
2022/01/12 09:44:58;;;;;;;40.45;13.60;;;;;;;3.81;100.00;104074.94;5071866;28;20194;-77
2022/01/12 09:47:24;;;;;;;107.45;14.13;;;;;;;3.86;100.00;104076.00;5077179;28;20036;-76
2022/01/12 09:49:49;;;;;;;55.00;12.73;;;;;;;3.95;100.00;104086.78;5072801;28;20434;-77
2022/01/12 09:52:15;;;;;;;48.28;12.65;;;;;;;3.97;100.00;104092.13;5071797;28;20112;-76
2022/01/12 09:54:40;;;;;;;47.08;13.52;;;;;;;4.03;100.00;104095.84;5071288;28;20028;-73
2022/01/12 09:57:06;;;;;;;52.60;13.90;;;;;;;4.04;100.00;104091.47;5072204;28;20066;-73
2022/01/12 09:59:32;;;;;;;43.63;13.05;;;;;;;4.06;100.00;104088.06;5072174;28;20032;-75
2022/01/12 10:01:58;;;;;;;43.45;13.93;;;;;;;4.10;100.00;104086.44;5071607;28;20081;-77
2022/01/12 10:04:29;;;;;;;71.40;14.75;;;;;;;4.09;100.00;104092.53;5072281;28;20079;-72
2022/01/12 10:07:03;;;;;;;55.47;14.90;;;;;;;4.14;100.00;104093.56;5070797;28;20025;-79
2022/01/12 10:09:44;;;;;;;40.20;12.20;;;;;;;4.23;100.00;104109.66;5071875;28;20032;-74
2022/01/12 10:12:16;;;;;;;44.40;12.60;;;;;;;4.32;100.00;104101.19;5072293;28;20035;-77
2022/01/12 10:14:50;;;;;;;33.72;10.45;;;;;;;4.37;100.00;104102.25;5072061;28;20032;-69
2022/01/12 10:17:29;;;;;;;27.83;8.80;;;;;;;4.39;100.00;104111.06;5071596;28;20024;-71
2022/01/12 10:20:10;;;;;;;21.73;7.55;;;;;;;4.47;100.00;104106.06;5071413;28;20032;-76
2022/01/12 10:22:37;;;;;;;25.15;7.80;;;;;;;4.52;100.00;104103.59;5071673;28;20028;-76
2022/01/12 10:25:20;;;;;;;27.02;7.50;;;;;;;4.56;100.00;104089.72;5072167;28;20035;-76
2022/01/12 10:27:46;;;;;;;57.80;8.57;;;;;;;4.58;100.00;104090.69;5071927;28;20524;-77
2022/01/12 10:30:19;;;;;;;25.40;6.97;;;;;;;4.67;100.00;104077.84;5071817;28;20028;-75
2022/01/12 10:32:45;;;;;;;16.75;6.25;;;;;;;4.76;100.00;104072.88;5071961;28;20037;-76
2022/01/12 10:35:10;;;;;;;17.70;5.88;;;;;;;4.86;100.00;104073.16;5071318;28;20028;-74
2022/01/12 10:37:35;;;;;;;53.17;6.40;;;;;;;4.86;100.00;104081.94;5072416;28;20032;-73
2022/01/12 10:40:01;;;;;;;22.30;6.72;;;;;;;4.90;100.00;104081.19;5078820;28;20035;-75
2022/01/12 10:42:28;;;;;;;23.52;8.20;;;;;;;4.99;100.00;104085.84;5071521;28;20021;-77
2022/01/12 10:45:03;;;;;;;32.97;10.98;;;;;;;5.12;100.00;104068.72;5071758;28;20110;-77
2022/01/12 10:47:31;;;;;;;34.45;10.57;;;;;;;5.21;100.00;104062.84;5071899;28;20438;-75
2022/01/12 10:50:06;;;;;;;28.02;10.20;;;;;;;5.25;100.00;104065.59;5071130;28;20028;-77
2022/01/12 10:52:38;;;;;;;29.42;9.88;;;;;;;5.23;100.00;104074.28;5071523;28;20082;-74
2022/01/12 10:55:09;;;;;;;49.92;9.60;;;;;;;5.12;100.00;104087.13;5070297;28;20051;-73
2022/01/12 10:57:40;;;;;;;25.98;9.48;;;;;;;5.17;100.00;104100.41;5071541;28;20093;-70
2022/01/12 11:00:23;;;;;;;27.00;10.23;;;;;;;5.17;100.00;104093.41;5071448;28;20062;-73
2022/01/12 11:02:53;;;;;;;27.65;8.48;;;;;;;5.18;100.00;104089.94;5053893;28;20021;-74
2022/01/12 11:05:22;;;;;;;29.00;9.80;;;;;;;5.25;100.00;104083.13;5071554;28;20055;-72
2022/01/12 11:07:48;;;;;;;32.30;10.38;;;;;;;5.28;100.00;104075.34;5074581;28;20024;-70
2022/01/12 11:10:14;;;;;;;27.63;10.57;;;;;;;5.38;100.00;104077.38;5075172;28;20132;-78
2022/01/12 11:12:40;;;;;;;28.88;10.02;;;;;;;5.39;100.00;104073.88;5075569;28;20439;-73
2022/01/12 11:15:11;;;;;;;27.77;11.00;;;;;;;5.41;100.00;104061.69;5075330;28;20031;-73
2022/01/12 11:17:40;;;;;;;32.60;10.65;;;;;;;5.48;100.00;104054.00;5074986;28;20035;-73
2022/01/12 11:20:18;;;;;;;43.35;11.57;;;;;;;5.49;100.00;104056.66;5075302;28;20036;-72
2022/01/12 11:22:43;;;;;;;44.03;11.20;;;;;;;5.52;100.00;104050.59;5075200;28;20090;-76
2022/01/12 11:25:23;;;;;;;29.73;10.85;;;;;;;5.46;100.00;104053.97;5075480;28;20052;-73
2022/01/12 11:28:03;;;;;;;29.05;10.68;;;;;;;5.46;100.00;104059.22;5075378;28;20028;-73
2022/01/12 11:30:33;;;;;;;25.55;10.50;;;;;;;5.55;100.00;104046.31;5074955;28;20030;-77
2022/01/12 11:33:01;;;;;;;27.13;11.65;;;;;;;5.66;100.00;104045.72;5074713;28;20115;-73
2022/01/12 11:35:29;;;;;;;27.55;11.23;;;;;;;5.57;100.00;104041.97;5074726;28;20570;-70
2022/01/12 11:37:59;;;;;;;33.35;11.02;;;;;;;5.57;100.00;104043.72;5074810;28;20498;-72
2022/01/12 11:40:41;;;;;;;34.42;11.75;;;;;;;5.50;100.00;104036.50;5061445;28;20464;-70
2022/01/12 11:43:52;;;;;;;25.90;10.63;;;;;;;5.55;100.00;104032.25;5074484;28;20519;-77
2022/01/12 11:46:26;;;;;;;37.53;11.90;;;;;;;5.65;100.00;104038.69;5012711;28;20038;-76
2022/01/12 11:48:57;;;;;;;36.90;11.40;;;;;;;5.65;100.00;104033.41;5012443;28;20045;-74
2022/01/12 11:51:42;;;;;;;42.40;12.30;;;;;;;5.67;100.00;104031.72;5013195;28;20224;-77
2022/01/12 11:54:08;;;;;;;35.40;10.88;;;;;;;5.68;100.00;104036.16;5012353;28;20367;-69
2022/01/12 11:56:33;;;;;;;31.98;10.48;;;;;;;5.71;100.00;104039.72;5012383;28;20049;-77
2022/01/12 11:59:07;;;;;;;29.65;9.85;;;;;;;5.65;100.00;104044.84;5012151;28;20050;-76
2022/01/12 12:01:45;;;;;;;25.98;8.45;;;;;;;5.65;100.00;104036.03;5012020;28;20509;-78
2022/01/12 12:04:38;;;;;;;51.35;11.48;;;;;;;5.61;100.00;104026.31;5012219;28;20123;-70
2022/01/12 12:07:14;;;;;;;30.60;11.18;;;;;;;5.55;100.00;104027.91;5004092;28;20505;-73
2022/01/12 12:09:48;;;;;;;36.72;10.57;;;;;;;5.52;100.00;104021.69;5012417;28;20049;-72
2022/01/12 12:12:17;;;;;;;30.70;11.43;;;;;;;5.61;100.00;104026.31;5012797;28;20040;-76
2022/01/12 12:14:46;;;;;;;34.50;10.13;;;;;;;5.58;100.00;104022.72;5012432;28;20038;-69
2022/01/12 12:17:11;;;;;;;47.38;11.27;;;;;;;5.53;100.00;104023.47;5011951;28;20030;-74
2022/01/12 12:19:37;;;;;;;34.97;11.50;;;;;;;5.53;100.00;104021.72;5011697;28;20037;-73
2022/01/12 12:22:12;;;;;;;55.33;13.32;;;;;;;5.47;100.00;104011.03;5032020;28;20102;-76
2022/01/12 12:24:38;;;;;;;31.02;11.23;;;;;;;5.51;100.00;104015.53;5074353;28;20078;-74
2022/01/12 12:27:06;;;;;;;72.47;10.73;;;;;;;5.57;100.00;104012.19;5074560;28;20064;-73
2022/01/12 12:29:31;;;;;;;113.28;12.65;;;;;;;5.40;100.00;104019.59;5074309;28;20020;-70